AAL3306 KDFW-KFSD
Flight info
| Callsign | AAL3306 |
|---|---|
| Flight time | 1h 42m |
| Altitude | 38000 |
| Route | BLECO8 ZEMMA PER FSD |
| Aircraft | A319/M-SDE3FGHIRWY/LB1 |
Departure
| Time | 2026-04-30 20:32 |
|---|---|
| Airport | Dallas Fort Worth International Airport (KDFW) |
Arrival
| Time | 2026-04-30 22:15 |
|---|---|
| Airport | Sioux Falls Regional Airport (KFSD) |
| Time | Latitude | Longitude | Altitude | Speed | Heading |
|---|---|---|---|---|---|
| 2026-04-30 19:52 | 32.89680 | -97.03512 | 587 ft | 0 kts | 288° |
| 2026-04-30 20:19 | 32.89680 | -97.03510 | 587 ft | 2 kts | 288° |
| 2026-04-30 20:19 | 32.89672 | -97.03481 | 587 ft | 4 kts | 288° |
| 2026-04-30 20:19 | 32.89665 | -97.03457 | 587 ft | 4 kts | 285° |
| 2026-04-30 20:20 | 32.89661 | -97.03426 | 587 ft | 4 kts | 262° |
| 2026-04-30 20:20 | 32.89665 | -97.03409 | 587 ft | 0 kts | 243° |
| 2026-04-30 20:23 | 32.89664 | -97.03411 | 587 ft | 1 kts | 239° |
| 2026-04-30 20:23 | 32.89660 | -97.03411 | 587 ft | 1 kts | 206° |
| 2026-04-30 20:23 | 32.89651 | -97.03410 | 587 ft | 1 kts | 172° |
| 2026-04-30 20:23 | 32.89641 | -97.03408 | 587 ft | 0 kts | 168° |
| 2026-04-30 20:24 | 32.89633 | -97.03405 | 587 ft | 2 kts | 163° |
| 2026-04-30 20:24 | 32.89623 | -97.03393 | 587 ft | 2 kts | 124° |
| 2026-04-30 20:24 | 32.89617 | -97.03366 | 587 ft | 4 kts | 98° |
| 2026-04-30 20:25 | 32.89545 | -97.03317 | 586 ft | 9 kts | 178° |
| 2026-04-30 20:25 | 32.89475 | -97.03317 | 586 ft | 11 kts | 181° |
| 2026-04-30 20:26 | 32.89289 | -97.03318 | 584 ft | 16 kts | 180° |
| 2026-04-30 20:26 | 32.89047 | -97.03319 | 583 ft | 17 kts | 180° |
| 2026-04-30 20:26 | 32.88922 | -97.03320 | 582 ft | 18 kts | 180° |
| 2026-04-30 20:27 | 32.88685 | -97.03321 | 583 ft | 17 kts | 180° |
| 2026-04-30 20:27 | 32.88496 | -97.03303 | 575 ft | 12 kts | 154° |
| 2026-04-30 20:28 | 32.88316 | -97.03289 | 577 ft | 14 kts | 180° |
| 2026-04-30 20:28 | 32.88137 | -97.03290 | 575 ft | 9 kts | 180° |
| 2026-04-30 20:29 | 32.87995 | -97.03290 | 579 ft | 11 kts | 180° |
| 2026-04-30 20:30 | 32.87904 | -97.03146 | 575 ft | 0 kts | 90° |
| 2026-04-30 20:31 | 32.87958 | -97.03009 | 572 ft | 8 kts | 1° |
| 2026-04-30 20:32 | 32.89505 | -97.02996 | 687 ft | 158 kts | 359° |
| 2026-04-30 20:32 | 32.91674 | -97.03011 | 2180 ft | 155 kts | 5° |
| 2026-04-30 20:33 | 32.92809 | -97.02982 | 2674 ft | 173 kts | 5° |
| 2026-04-30 20:33 | 32.95473 | -97.02885 | 3544 ft | 210 kts | 5° |
| 2026-04-30 20:33 | 32.97030 | -97.02826 | 3876 ft | 237 kts | 5° |
| 2026-04-30 20:34 | 33.00541 | -97.02690 | 5362 ft | 265 kts | 3° |
| 2026-04-30 20:34 | 33.04304 | -97.02580 | 7173 ft | 277 kts | 359° |
| 2026-04-30 20:35 | 33.06235 | -97.02542 | 8171 ft | 277 kts | 358° |
| 2026-04-30 20:35 | 33.08162 | -97.02463 | 9183 ft | 281 kts | 1° |
| 2026-04-30 20:35 | 33.12220 | -97.01800 | 10415 ft | 312 kts | 2° |
| 2026-04-30 20:36 | 33.14450 | -97.01590 | 10727 ft | 329 kts | 352° |
| 2026-04-30 20:36 | 33.16716 | -97.02006 | 11329 ft | 331 kts | 339° |
| 2026-04-30 20:36 | 33.21227 | -97.03410 | 12957 ft | 338 kts | 339° |
| 2026-04-30 20:37 | 33.23516 | -97.04126 | 13738 ft | 341 kts | 338° |
| 2026-04-30 20:37 | 33.25824 | -97.04850 | 14402 ft | 345 kts | 338° |
| 2026-04-30 20:37 | 33.28154 | -97.05580 | 15064 ft | 348 kts | 337° |
| 2026-04-30 20:37 | 33.30507 | -97.06319 | 15724 ft | 351 kts | 337° |
| 2026-04-30 20:38 | 33.32886 | -97.07068 | 16372 ft | 355 kts | 336° |
| 2026-04-30 20:38 | 33.35282 | -97.07823 | 17025 ft | 358 kts | 336° |
| 2026-04-30 20:38 | 33.37700 | -97.08586 | 17679 ft | 361 kts | 335° |
| 2026-04-30 20:39 | 33.42576 | -97.10126 | 18859 ft | 368 kts | 335° |
| 2026-04-30 20:39 | 33.45175 | -97.10663 | 19433 ft | 383 kts | 346° |
| 2026-04-30 20:39 | 33.47890 | -97.10583 | 19999 ft | 398 kts | 356° |
| 2026-04-30 20:40 | 33.53427 | -97.09870 | 21158 ft | 403 kts | 358° |
| 2026-04-30 20:40 | 33.56227 | -97.09510 | 21726 ft | 406 kts | 357° |
| 2026-04-30 20:40 | 33.59044 | -97.09152 | 22275 ft | 409 kts | 357° |
| 2026-04-30 20:41 | 33.64713 | -97.08430 | 23359 ft | 415 kts | 357° |
| 2026-04-30 20:41 | 33.67593 | -97.08065 | 23833 ft | 418 kts | 357° |
| 2026-04-30 20:41 | 33.70504 | -97.07697 | 24263 ft | 421 kts | 356° |
| 2026-04-30 20:41 | 33.73421 | -97.07326 | 24697 ft | 423 kts | 356° |
| 2026-04-30 20:42 | 33.76357 | -97.06952 | 25122 ft | 426 kts | 355° |
| 2026-04-30 20:42 | 33.79316 | -97.06576 | 25543 ft | 430 kts | 355° |
| 2026-04-30 20:42 | 33.85301 | -97.05816 | 26509 ft | 435 kts | 355° |
| 2026-04-30 20:43 | 33.88318 | -97.05428 | 26978 ft | 437 kts | 354° |
| 2026-04-30 20:43 | 33.91354 | -97.05042 | 27439 ft | 439 kts | 354° |
| 2026-04-30 20:43 | 33.94402 | -97.04655 | 27872 ft | 441 kts | 354° |
| 2026-04-30 20:44 | 34.00533 | -97.03870 | 28713 ft | 445 kts | 354° |
| 2026-04-30 20:44 | 34.03620 | -97.03473 | 29137 ft | 448 kts | 354° |
| 2026-04-30 20:44 | 34.09861 | -97.02670 | 29917 ft | 453 kts | 353° |
| 2026-04-30 20:45 | 34.16151 | -97.01866 | 30611 ft | 457 kts | 353° |
| 2026-04-30 20:45 | 34.19323 | -97.01461 | 30935 ft | 459 kts | 353° |
| 2026-04-30 20:45 | 34.22510 | -97.01056 | 31238 ft | 462 kts | 353° |
| 2026-04-30 20:46 | 34.31075 | -96.99963 | 32081 ft | 468 kts | 353° |
| 2026-04-30 20:46 | 34.34310 | -96.99538 | 32497 ft | 467 kts | 353° |
| 2026-04-30 20:47 | 34.40691 | -96.99136 | 33313 ft | 448 kts | 343° |
| 2026-04-30 20:47 | 34.43800 | -96.99352 | 33712 ft | 447 kts | 343° |
| 2026-04-30 20:48 | 34.49995 | -96.99798 | 34502 ft | 445 kts | 342° |
| 2026-04-30 20:48 | 34.53085 | -97.00024 | 34928 ft | 443 kts | 342° |
| 2026-04-30 20:48 | 34.56151 | -97.00242 | 35428 ft | 440 kts | 343° |
| 2026-04-30 20:48 | 34.59190 | -97.00452 | 35890 ft | 436 kts | 342° |
| 2026-04-30 20:49 | 34.62214 | -97.00658 | 36337 ft | 433 kts | 342° |
| 2026-04-30 20:49 | 34.65208 | -97.00864 | 36770 ft | 430 kts | 342° |
| 2026-04-30 20:49 | 34.68187 | -97.01070 | 37188 ft | 427 kts | 342° |
| 2026-04-30 20:50 | 34.74079 | -97.01484 | 37974 ft | 422 kts | 342° |
| 2026-04-30 20:50 | 34.79914 | -97.01902 | 38129 ft | 418 kts | 342° |
| 2026-04-30 20:51 | 34.85690 | -97.02325 | 38078 ft | 415 kts | 341° |
| 2026-04-30 20:51 | 34.94338 | -97.02951 | 38067 ft | 415 kts | 341° |
| 2026-04-30 20:52 | 35.00105 | -97.03352 | 38061 ft | 415 kts | 342° |
| 2026-04-30 20:53 | 35.08753 | -97.03960 | 38079 ft | 415 kts | 341° |
| 2026-04-30 20:53 | 35.14485 | -97.04374 | 38067 ft | 416 kts | 341° |
| 2026-04-30 20:54 | 35.23176 | -97.04995 | 38069 ft | 417 kts | 341° |
| 2026-04-30 20:55 | 35.31871 | -97.05620 | 38100 ft | 418 kts | 340° |
| 2026-04-30 20:55 | 35.37691 | -97.06042 | 38078 ft | 420 kts | 340° |
| 2026-04-30 20:56 | 35.46455 | -97.06657 | 38070 ft | 421 kts | 340° |
| 2026-04-30 20:57 | 35.55232 | -97.07283 | 38129 ft | 421 kts | 340° |
| 2026-04-30 20:57 | 35.61101 | -97.07708 | 38092 ft | 423 kts | 340° |
| 2026-04-30 20:58 | 35.69914 | -97.08347 | 38087 ft | 423 kts | 340° |
| 2026-04-30 20:58 | 35.75797 | -97.08780 | 38089 ft | 424 kts | 340° |
| 2026-04-30 20:59 | 35.84637 | -97.09414 | 38095 ft | 424 kts | 340° |
| 2026-04-30 21:00 | 35.96418 | -97.10275 | 38117 ft | 424 kts | 340° |
| 2026-04-30 21:01 | 36.05247 | -97.10927 | 38144 ft | 425 kts | 341° |
| 2026-04-30 21:02 | 36.14089 | -97.11563 | 38097 ft | 424 kts | 341° |
| 2026-04-30 21:02 | 36.19991 | -97.11989 | 38097 ft | 425 kts | 341° |
| 2026-04-30 21:03 | 36.25899 | -97.12423 | 38097 ft | 425 kts | 341° |
| 2026-04-30 21:03 | 36.31771 | -97.12856 | 38113 ft | 425 kts | 341° |
| 2026-04-30 21:04 | 36.37668 | -97.13285 | 38104 ft | 425 kts | 341° |
| 2026-04-30 21:04 | 36.46519 | -97.13936 | 38104 ft | 425 kts | 341° |
| 2026-04-30 21:05 | 36.52424 | -97.14372 | 38104 ft | 425 kts | 341° |
| 2026-04-30 21:05 | 36.58332 | -97.14800 | 38118 ft | 424 kts | 341° |
| 2026-04-30 21:06 | 36.64227 | -97.15234 | 38112 ft | 424 kts | 341° |
| 2026-04-30 21:06 | 36.70121 | -97.15681 | 38118 ft | 424 kts | 341° |
| 2026-04-30 21:07 | 36.76058 | -97.15963 | 38112 ft | 436 kts | 347° |
| 2026-04-30 21:07 | 36.82083 | -97.15657 | 38118 ft | 435 kts | 346° |
| 2026-04-30 21:08 | 36.88177 | -97.15347 | 38111 ft | 435 kts | 346° |
| 2026-04-30 21:08 | 36.94189 | -97.15044 | 38106 ft | 436 kts | 346° |
| 2026-04-30 21:09 | 37.00250 | -97.14747 | 38118 ft | 436 kts | 346° |
| 2026-04-30 21:09 | 37.06314 | -97.14442 | 38143 ft | 435 kts | 346° |
| 2026-04-30 21:10 | 37.12368 | -97.14135 | 38140 ft | 435 kts | 346° |
| 2026-04-30 21:10 | 37.18423 | -97.13824 | 38136 ft | 436 kts | 346° |
| 2026-04-30 21:11 | 37.24478 | -97.13523 | 38146 ft | 435 kts | 346° |
| 2026-04-30 21:11 | 37.30535 | -97.13227 | 38143 ft | 435 kts | 346° |
| 2026-04-30 21:12 | 37.36589 | -97.12922 | 38139 ft | 435 kts | 346° |
| 2026-04-30 21:12 | 37.42643 | -97.12607 | 38129 ft | 436 kts | 346° |
| 2026-04-30 21:13 | 37.48697 | -97.12295 | 38126 ft | 436 kts | 346° |
| 2026-04-30 21:13 | 37.54758 | -97.11992 | 38125 ft | 435 kts | 346° |
| 2026-04-30 21:14 | 37.60809 | -97.11689 | 38131 ft | 435 kts | 346° |
| 2026-04-30 21:14 | 37.66831 | -97.11390 | 38131 ft | 436 kts | 346° |
| 2026-04-30 21:15 | 37.72893 | -97.11083 | 38132 ft | 436 kts | 346° |
| 2026-04-30 21:15 | 37.78968 | -97.10770 | 38126 ft | 436 kts | 347° |
| 2026-04-30 21:16 | 37.85037 | -97.10454 | 38117 ft | 437 kts | 347° |
| 2026-04-30 21:16 | 37.91119 | -97.10143 | 38120 ft | 438 kts | 347° |
| 2026-04-30 21:17 | 37.97207 | -97.09829 | 38129 ft | 438 kts | 347° |
| 2026-04-30 21:17 | 38.03315 | -97.09513 | 38150 ft | 439 kts | 347° |
| 2026-04-30 21:18 | 38.09431 | -97.09200 | 38136 ft | 440 kts | 347° |
| 2026-04-30 21:18 | 38.15554 | -97.08886 | 38129 ft | 441 kts | 348° |
| 2026-04-30 21:19 | 38.21683 | -97.08566 | 38130 ft | 441 kts | 348° |
| 2026-04-30 21:19 | 38.27818 | -97.08249 | 38126 ft | 441 kts | 348° |
| 2026-04-30 21:20 | 38.33959 | -97.07935 | 38125 ft | 441 kts | 348° |
| 2026-04-30 21:20 | 38.40098 | -97.07617 | 38125 ft | 442 kts | 348° |
| 2026-04-30 21:21 | 38.46242 | -97.07298 | 38148 ft | 442 kts | 348° |
| 2026-04-30 21:22 | 38.55410 | -97.06822 | 38125 ft | 442 kts | 348° |
| 2026-04-30 21:23 | 38.67697 | -97.06180 | 38124 ft | 442 kts | 348° |
| 2026-04-30 21:23 | 38.76905 | -97.05686 | 38130 ft | 441 kts | 348° |
| 2026-04-30 21:24 | 38.83035 | -97.05357 | 38112 ft | 441 kts | 348° |
| 2026-04-30 21:24 | 38.89168 | -97.05037 | 38124 ft | 441 kts | 348° |
| 2026-04-30 21:25 | 38.98338 | -97.04552 | 38108 ft | 438 kts | 348° |
| 2026-04-30 21:26 | 39.07476 | -97.04071 | 38108 ft | 439 kts | 348° |
| 2026-04-30 21:27 | 39.16629 | -97.03587 | 38144 ft | 439 kts | 348° |
| 2026-04-30 21:27 | 39.22738 | -97.03266 | 38134 ft | 440 kts | 348° |
| 2026-04-30 21:28 | 39.31911 | -97.02785 | 38131 ft | 440 kts | 348° |
| 2026-04-30 21:29 | 39.41098 | -97.02289 | 38125 ft | 440 kts | 348° |
| 2026-04-30 21:30 | 39.56390 | -97.01471 | 38112 ft | 442 kts | 349° |
| 2026-04-30 21:31 | 39.71787 | -97.00638 | 38140 ft | 444 kts | 349° |
| 2026-04-30 21:32 | 39.81051 | -97.00136 | 38139 ft | 444 kts | 349° |
| 2026-04-30 21:32 | 39.87231 | -96.99803 | 38171 ft | 444 kts | 351° |
| 2026-04-30 21:33 | 39.96501 | -96.99306 | 38156 ft | 445 kts | 351° |
| 2026-04-30 21:34 | 40.02683 | -96.98963 | 38151 ft | 445 kts | 351° |
| 2026-04-30 21:34 | 40.11935 | -96.98445 | 38135 ft | 442 kts | 352° |
| 2026-04-30 21:35 | 40.18077 | -96.98116 | 38135 ft | 442 kts | 351° |
| 2026-04-30 21:35 | 40.24223 | -96.97790 | 38138 ft | 442 kts | 351° |
| 2026-04-30 21:36 | 40.29336 | -96.97510 | 38171 ft | 443 kts | 352° |
| 2026-04-30 21:37 | 40.42645 | -96.96785 | 38160 ft | 443 kts | 352° |
| 2026-04-30 21:37 | 40.48798 | -96.96438 | 38158 ft | 443 kts | 352° |
| 2026-04-30 21:38 | 40.53917 | -96.96150 | 38160 ft | 443 kts | 352° |
| 2026-04-30 21:38 | 40.60073 | -96.95808 | 38162 ft | 443 kts | 352° |
| 2026-04-30 21:39 | 40.66187 | -96.95467 | 38163 ft | 443 kts | 352° |
| 2026-04-30 21:39 | 40.72338 | -96.95129 | 38173 ft | 443 kts | 353° |
| 2026-04-30 21:40 | 40.78484 | -96.94798 | 38162 ft | 442 kts | 353° |
| 2026-04-30 21:40 | 40.84630 | -96.94454 | 38163 ft | 443 kts | 353° |
| 2026-04-30 21:41 | 40.90483 | -96.94121 | 38165 ft | 443 kts | 353° |
| 2026-04-30 21:41 | 40.96644 | -96.93778 | 38189 ft | 443 kts | 353° |
| 2026-04-30 21:42 | 41.02806 | -96.93426 | 38183 ft | 443 kts | 353° |
| 2026-04-30 21:42 | 41.08974 | -96.93080 | 38183 ft | 443 kts | 353° |
| 2026-04-30 21:43 | 41.15137 | -96.92736 | 38210 ft | 444 kts | 353° |
| 2026-04-30 21:43 | 41.21303 | -96.92383 | 38185 ft | 443 kts | 353° |
| 2026-04-30 21:44 | 41.27470 | -96.92034 | 38181 ft | 443 kts | 353° |
| 2026-04-30 21:44 | 41.33634 | -96.91688 | 38185 ft | 444 kts | 353° |
| 2026-04-30 21:45 | 41.39808 | -96.91348 | 38205 ft | 444 kts | 354° |
| 2026-04-30 21:45 | 41.45980 | -96.90994 | 38200 ft | 444 kts | 354° |
| 2026-04-30 21:46 | 41.52161 | -96.90628 | 38204 ft | 444 kts | 354° |
| 2026-04-30 21:46 | 41.58337 | -96.90276 | 38216 ft | 445 kts | 354° |
| 2026-04-30 21:47 | 41.64511 | -96.89933 | 38181 ft | 444 kts | 354° |
| 2026-04-30 21:47 | 41.70587 | -96.90105 | 37738 ft | 427 kts | 341° |
| 2026-04-30 21:48 | 41.73476 | -96.91096 | 36563 ft | 430 kts | 335° |
| 2026-04-30 21:48 | 41.76357 | -96.92205 | 35751 ft | 433 kts | 343° |
| 2026-04-30 21:48 | 41.79356 | -96.92305 | 35651 ft | 432 kts | 358° |
| 2026-04-30 21:48 | 41.82294 | -96.91789 | 35556 ft | 418 kts | 359° |
| 2026-04-30 21:49 | 41.85136 | -96.91269 | 35465 ft | 407 kts | 359° |
| 2026-04-30 21:49 | 41.87900 | -96.90763 | 35371 ft | 396 kts | 359° |
| 2026-04-30 21:49 | 41.90599 | -96.90272 | 35141 ft | 390 kts | 358° |
| 2026-04-30 21:49 | 41.93314 | -96.89795 | 34498 ft | 396 kts | 358° |
| 2026-04-30 21:50 | 41.96056 | -96.89316 | 33949 ft | 398 kts | 358° |
| 2026-04-30 21:50 | 41.98807 | -96.88829 | 33389 ft | 399 kts | 358° |
| 2026-04-30 21:50 | 42.01565 | -96.88334 | 32851 ft | 401 kts | 359° |
| 2026-04-30 21:50 | 42.04287 | -96.87843 | 32313 ft | 401 kts | 359° |
| 2026-04-30 21:51 | 42.07052 | -96.87341 | 31772 ft | 401 kts | 359° |
| 2026-04-30 21:51 | 42.09822 | -96.86835 | 31229 ft | 402 kts | 359° |
| 2026-04-30 21:51 | 42.12596 | -96.86327 | 30676 ft | 402 kts | 359° |
| 2026-04-30 21:51 | 42.15372 | -96.85819 | 30121 ft | 403 kts | 359° |
| 2026-04-30 21:52 | 42.18147 | -96.85311 | 29529 ft | 402 kts | 359° |
| 2026-04-30 21:52 | 42.20911 | -96.84801 | 29018 ft | 400 kts | 359° |
| 2026-04-30 21:52 | 42.23662 | -96.84294 | 28434 ft | 399 kts | 359° |
| 2026-04-30 21:52 | 42.26365 | -96.83800 | 27907 ft | 397 kts | 359° |
| 2026-04-30 21:53 | 42.29095 | -96.83305 | 27373 ft | 395 kts | 359° |
| 2026-04-30 21:53 | 42.31780 | -96.82813 | 26845 ft | 394 kts | 359° |
| 2026-04-30 21:53 | 42.34491 | -96.82312 | 26316 ft | 393 kts | 359° |
| 2026-04-30 21:53 | 42.37189 | -96.81813 | 25786 ft | 391 kts | 359° |
| 2026-04-30 21:54 | 42.39888 | -96.81315 | 25261 ft | 390 kts | 359° |
| 2026-04-30 21:54 | 42.42572 | -96.80825 | 24746 ft | 389 kts | 360° |
| 2026-04-30 21:54 | 42.45252 | -96.80340 | 24213 ft | 388 kts | 360° |
| 2026-04-30 21:54 | 42.47924 | -96.79851 | 23678 ft | 387 kts | 0° |
| 2026-04-30 21:55 | 42.50593 | -96.79357 | 23095 ft | 386 kts | 0° |
| 2026-04-30 21:55 | 42.53242 | -96.78861 | 22582 ft | 383 kts | 0° |
| 2026-04-30 21:55 | 42.55878 | -96.78368 | 22063 ft | 381 kts | 0° |
| 2026-04-30 21:55 | 42.58497 | -96.77885 | 21548 ft | 379 kts | 0° |
| 2026-04-30 21:56 | 42.61105 | -96.77408 | 21034 ft | 377 kts | 0° |
| 2026-04-30 21:56 | 42.63698 | -96.76932 | 20524 ft | 375 kts | 0° |
| 2026-04-30 21:56 | 42.66272 | -96.76458 | 20016 ft | 372 kts | 0° |
| 2026-04-30 21:56 | 42.68832 | -96.75985 | 19513 ft | 370 kts | 0° |
| 2026-04-30 21:57 | 42.71378 | -96.75509 | 19010 ft | 368 kts | 0° |
| 2026-04-30 21:57 | 42.73913 | -96.75035 | 18508 ft | 367 kts | 0° |
| 2026-04-30 21:57 | 42.76432 | -96.74564 | 17967 ft | 364 kts | 1° |
| 2026-04-30 21:57 | 42.78930 | -96.74099 | 17475 ft | 360 kts | 1° |
| 2026-04-30 21:58 | 42.81405 | -96.73643 | 16854 ft | 359 kts | 1° |
| 2026-04-30 21:58 | 42.83868 | -96.73190 | 16384 ft | 355 kts | 2° |
| 2026-04-30 21:58 | 42.86307 | -96.72739 | 15900 ft | 352 kts | 2° |
| 2026-04-30 21:58 | 42.88720 | -96.72289 | 15423 ft | 348 kts | 3° |
| 2026-04-30 21:59 | 42.91103 | -96.71843 | 14967 ft | 344 kts | 3° |
| 2026-04-30 21:59 | 42.93457 | -96.71402 | 14503 ft | 340 kts | 3° |
| 2026-04-30 21:59 | 42.95757 | -96.70968 | 14051 ft | 336 kts | 4° |
| 2026-04-30 22:00 | 43.00331 | -96.70103 | 13104 ft | 327 kts | 4° |
| 2026-04-30 22:00 | 43.04761 | -96.69276 | 12237 ft | 316 kts | 5° |
| 2026-04-30 22:00 | 43.06925 | -96.68874 | 11799 ft | 311 kts | 5° |
| 2026-04-30 22:01 | 43.09059 | -96.68478 | 11372 ft | 307 kts | 5° |
| 2026-04-30 22:01 | 43.11161 | -96.68087 | 10958 ft | 303 kts | 5° |
| 2026-04-30 22:01 | 43.13234 | -96.67698 | 10557 ft | 299 kts | 5° |
| 2026-04-30 22:01 | 43.15284 | -96.67310 | 10150 ft | 295 kts | 5° |
| 2026-04-30 22:02 | 43.17302 | -96.66928 | 9723 ft | 291 kts | 5° |
| 2026-04-30 22:02 | 43.19289 | -96.66555 | 9328 ft | 286 kts | 5° |
| 2026-04-30 22:02 | 43.21243 | -96.66189 | 8945 ft | 281 kts | 5° |
| 2026-04-30 22:02 | 43.23162 | -96.65829 | 8567 ft | 276 kts | 5° |
| 2026-04-30 22:03 | 43.25048 | -96.65473 | 8195 ft | 272 kts | 5° |
| 2026-04-30 22:03 | 43.26910 | -96.65119 | 7820 ft | 268 kts | 5° |
| 2026-04-30 22:03 | 43.28738 | -96.64771 | 7462 ft | 264 kts | 5° |
| 2026-04-30 22:03 | 43.30547 | -96.64429 | 7103 ft | 260 kts | 5° |
| 2026-04-30 22:04 | 43.32331 | -96.64094 | 6750 ft | 257 kts | 5° |
| 2026-04-30 22:04 | 43.34073 | -96.63768 | 6399 ft | 254 kts | 5° |
| 2026-04-30 22:04 | 43.37516 | -96.63118 | 5724 ft | 246 kts | 5° |
| 2026-04-30 22:05 | 43.39198 | -96.62796 | 5388 ft | 242 kts | 5° |
| 2026-04-30 22:05 | 43.40846 | -96.62479 | 5157 ft | 234 kts | 5° |
| 2026-04-30 22:05 | 43.42387 | -96.62034 | 5137 ft | 220 kts | 20° |
| 2026-04-30 22:05 | 43.43602 | -96.60834 | 5145 ft | 216 kts | 47° |
| 2026-04-30 22:06 | 43.44287 | -96.58991 | 5145 ft | 221 kts | 75° |
| 2026-04-30 22:06 | 43.43503 | -96.55010 | 5172 ft | 225 kts | 134° |
| 2026-04-30 22:06 | 43.42232 | -96.53789 | 5172 ft | 224 kts | 153° |
| 2026-04-30 22:07 | 43.40856 | -96.52777 | 5170 ft | 224 kts | 154° |
| 2026-04-30 22:07 | 43.39476 | -96.51793 | 5159 ft | 223 kts | 155° |
| 2026-04-30 22:07 | 43.38103 | -96.50818 | 4952 ft | 222 kts | 155° |
| 2026-04-30 22:07 | 43.36676 | -96.50045 | 4681 ft | 219 kts | 174° |
| 2026-04-30 22:08 | 43.35205 | -96.50225 | 4369 ft | 211 kts | 211° |
| 2026-04-30 22:08 | 43.34278 | -96.51638 | 4048 ft | 198 kts | 257° |
| 2026-04-30 22:08 | 43.34344 | -96.53447 | 3864 ft | 189 kts | 289° |
| 2026-04-30 22:08 | 43.34808 | -96.55095 | 3844 ft | 184 kts | 297° |
| 2026-04-30 22:09 | 43.35413 | -96.56658 | 3830 ft | 186 kts | 303° |
| 2026-04-30 22:09 | 43.36223 | -96.58050 | 3828 ft | 188 kts | 322° |
| 2026-04-30 22:09 | 43.37341 | -96.58972 | 3832 ft | 187 kts | 330° |
| 2026-04-30 22:09 | 43.38486 | -96.59846 | 3827 ft | 188 kts | 331° |
| 2026-04-30 22:10 | 43.39630 | -96.60718 | 3819 ft | 189 kts | 330° |
| 2026-04-30 22:10 | 43.40775 | -96.61592 | 3827 ft | 188 kts | 330° |
| 2026-04-30 22:10 | 43.41911 | -96.62461 | 3821 ft | 187 kts | 330° |
| 2026-04-30 22:10 | 43.43048 | -96.63333 | 3821 ft | 188 kts | 330° |
| 2026-04-30 22:11 | 43.45337 | -96.65087 | 3815 ft | 188 kts | 330° |
| 2026-04-30 22:11 | 43.46459 | -96.65946 | 3815 ft | 187 kts | 329° |
| 2026-04-30 22:11 | 43.47600 | -96.66821 | 3593 ft | 189 kts | 330° |
| 2026-04-30 22:12 | 43.48741 | -96.67699 | 3350 ft | 184 kts | 329° |
| 2026-04-30 22:12 | 43.49825 | -96.68533 | 3097 ft | 172 kts | 328° |
| 2026-04-30 22:12 | 43.50844 | -96.69308 | 2891 ft | 160 kts | 331° |
| 2026-04-30 22:12 | 43.51830 | -96.69908 | 2644 ft | 151 kts | 336° |
| 2026-04-30 22:13 | 43.52755 | -96.70381 | 2462 ft | 133 kts | 336° |
| 2026-04-30 22:13 | 43.53572 | -96.70894 | 2258 ft | 127 kts | 330° |
| 2026-04-30 22:13 | 43.54362 | -96.71429 | 2089 ft | 126 kts | 333° |
| 2026-04-30 22:13 | 43.55146 | -96.71944 | 1922 ft | 125 kts | 335° |
| 2026-04-30 22:14 | 43.55935 | -96.72431 | 1769 ft | 123 kts | 333° |
| 2026-04-30 22:14 | 43.56713 | -96.72935 | 1615 ft | 123 kts | 333° |
| 2026-04-30 22:14 | 43.57493 | -96.73436 | 1454 ft | 123 kts | 333° |
| 2026-04-30 22:14 | 43.58172 | -96.73877 | 1436 ft | 76 kts | 335° |
| 2026-04-30 22:15 | 43.58458 | -96.74057 | 1434 ft | 30 kts | 335° |
| 2026-04-30 22:15 | 43.58639 | -96.74175 | 1435 ft | 28 kts | 335° |
| 2026-04-30 22:15 | 43.58801 | -96.74278 | 1438 ft | 19 kts | 335° |
| 2026-04-30 22:15 | 43.58892 | -96.74338 | 1438 ft | 13 kts | 335° |
| 2026-04-30 22:16 | 43.58964 | -96.74370 | 1439 ft | 0 kts | 5° |
| 2026-04-30 22:16 | 43.58981 | -96.74362 | 1438 ft | 7 kts | 28° |
| 2026-04-30 22:17 | 43.58842 | -96.74139 | 1435 ft | 16 kts | 154° |
| 2026-04-30 22:17 | 43.58733 | -96.74067 | 1435 ft | 18 kts | 155° |
| 2026-04-30 22:17 | 43.58482 | -96.73907 | 1435 ft | 22 kts | 155° |
| 2026-04-30 22:18 | 43.58351 | -96.73823 | 1435 ft | 16 kts | 155° |
| 2026-04-30 22:18 | 43.58122 | -96.73676 | 1435 ft | 18 kts | 155° |
| 2026-04-30 22:19 | 43.58006 | -96.73557 | 1434 ft | 6 kts | 87° |
| 2026-04-30 22:19 | 43.58019 | -96.73499 | 1434 ft | 7 kts | 70° |
| 2026-04-30 22:19 | 43.58029 | -96.73415 | 1434 ft | 1 kts | 84° |
| 2026-04-30 22:20 | 43.58029 | -96.73409 | 1434 ft | 0 kts | 84° |